sensor_id;sensor_type;location;lat;lon;timestamp;P1;durP1;ratioP1;P2;durP2;ratioP2
29432;SDS011;16405;53.964;13.448;2022-12-07T00:01:30;21.67;;;11.02;;
29432;SDS011;16405;53.964;13.448;2022-12-07T00:04:07;29.10;;;12.25;;
29432;SDS011;16405;53.964;13.448;2022-12-07T00:06:40;26.10;;;13.02;;
29432;SDS011;16405;53.964;13.448;2022-12-07T00:09:10;24.80;;;12.40;;
29432;SDS011;16405;53.964;13.448;2022-12-07T00:11:39;25.02;;;11.77;;
29432;SDS011;16405;53.964;13.448;2022-12-07T00:14:11;24.52;;;12.00;;
29432;SDS011;16405;53.964;13.448;2022-12-07T00:16:40;26.35;;;12.52;;
29432;SDS011;16405;53.964;13.448;2022-12-07T00:19:06;29.77;;;12.85;;
29432;SDS011;16405;53.964;13.448;2022-12-07T00:21:39;26.00;;;12.93;;
29432;SDS011;16405;53.964;13.448;2022-12-07T00:24:06;24.17;;;13.18;;
29432;SDS011;16405;53.964;13.448;2022-12-07T00:26:36;27.83;;;13.18;;
29432;SDS011;16405;53.964;13.448;2022-12-07T00:29:17;25.08;;;12.48;;
29432;SDS011;16405;53.964;13.448;2022-12-07T00:31:49;23.75;;;12.48;;
29432;SDS011;16405;53.964;13.448;2022-12-07T00:34:17;23.10;;;12.90;;
29432;SDS011;16405;53.964;13.448;2022-12-07T00:36:50;19.90;;;12.32;;
29432;SDS011;16405;53.964;13.448;2022-12-07T00:39:16;20.20;;;11.75;;
29432;SDS011;16405;53.964;13.448;2022-12-07T00:41:42;22.98;;;12.15;;
29432;SDS011;16405;53.964;13.448;2022-12-07T00:44:08;24.27;;;12.18;;
29432;SDS011;16405;53.964;13.448;2022-12-07T00:49:11;22.75;;;12.00;;
29432;SDS011;16405;53.964;13.448;2022-12-07T00:51:37;24.33;;;12.90;;
29432;SDS011;16405;53.964;13.448;2022-12-07T00:54:03;22.88;;;11.80;;
29432;SDS011;16405;53.964;13.448;2022-12-07T00:56:36;26.48;;;12.55;;
29432;SDS011;16405;53.964;13.448;2022-12-07T00:59:03;23.17;;;12.20;;
29432;SDS011;16405;53.964;13.448;2022-12-07T01:01:30;22.83;;;12.25;;
29432;SDS011;16405;53.964;13.448;2022-12-07T01:04:02;26.60;;;12.68;;
29432;SDS011;16405;53.964;13.448;2022-12-07T01:06:29;18.08;;;11.38;;
29432;SDS011;16405;53.964;13.448;2022-12-07T01:08:55;21.00;;;12.10;;
29432;SDS011;16405;53.964;13.448;2022-12-07T01:11:22;22.35;;;11.80;;
29432;SDS011;16405;53.964;13.448;2022-12-07T01:13:53;23.02;;;11.32;;
29432;SDS011;16405;53.964;13.448;2022-12-07T01:16:22;21.17;;;12.27;;
29432;SDS011;16405;53.964;13.448;2022-12-07T01:18:51;27.02;;;12.77;;
29432;SDS011;16405;53.964;13.448;2022-12-07T01:21:23;22.70;;;12.38;;
29432;SDS011;16405;53.964;13.448;2022-12-07T01:23:51;28.35;;;12.77;;
29432;SDS011;16405;53.964;13.448;2022-12-07T01:26:19;21.27;;;11.68;;
29432;SDS011;16405;53.964;13.448;2022-12-07T01:28:49;21.90;;;11.63;;
29432;SDS011;16405;53.964;13.448;2022-12-07T01:31:19;24.05;;;11.55;;
29432;SDS011;16405;53.964;13.448;2022-12-07T01:33:49;23.05;;;11.23;;
29432;SDS011;16405;53.964;13.448;2022-12-07T01:36:24;21.35;;;11.63;;
29432;SDS011;16405;53.964;13.448;2022-12-07T01:38:56;22.60;;;12.02;;
29432;SDS011;16405;53.964;13.448;2022-12-07T01:41:26;22.42;;;11.02;;
29432;SDS011;16405;53.964;13.448;2022-12-07T01:46:52;21.95;;;11.15;;
29432;SDS011;16405;53.964;13.448;2022-12-07T01:49:23;20.10;;;10.60;;
29432;SDS011;16405;53.964;13.448;2022-12-07T01:52:19;18.30;;;10.40;;
29432;SDS011;16405;53.964;13.448;2022-12-07T01:55:02;18.65;;;9.93;;
29432;SDS011;16405;53.964;13.448;2022-12-07T01:57:32;22.48;;;10.50;;
29432;SDS011;16405;53.964;13.448;2022-12-07T02:00:03;19.33;;;10.40;;
29432;SDS011;16405;53.964;13.448;2022-12-07T02:02:32;18.08;;;9.93;;
29432;SDS011;16405;53.964;13.448;2022-12-07T02:05:08;18.20;;;10.40;;
29432;SDS011;16405;53.964;13.448;2022-12-07T02:07:35;21.02;;;11.32;;
29432;SDS011;16405;53.964;13.448;2022-12-07T02:10:16;19.77;;;11.02;;
29432;SDS011;16405;53.964;13.448;2022-12-07T02:12:46;24.00;;;11.75;;
29432;SDS011;16405;53.964;13.448;2022-12-07T02:15:16;23.63;;;11.07;;
29432;SDS011;16405;53.964;13.448;2022-12-07T02:17:49;24.13;;;12.07;;
29432;SDS011;16405;53.964;13.448;2022-12-07T02:31:56;23.27;;;12.00;;
29432;SDS011;16405;53.964;13.448;2022-12-07T02:34:42;21.33;;;11.70;;
29432;SDS011;16405;53.964;13.448;2022-12-07T02:37:53;22.80;;;11.40;;
29432;SDS011;16405;53.964;13.448;2022-12-07T02:43:27;18.40;;;10.43;;
29432;SDS011;16405;53.964;13.448;2022-12-07T02:46:15;20.15;;;10.55;;
29432;SDS011;16405;53.964;13.448;2022-12-07T02:48:51;17.25;;;10.88;;
29432;SDS011;16405;53.964;13.448;2022-12-07T02:51:20;17.85;;;10.65;;
29432;SDS011;16405;53.964;13.448;2022-12-07T02:53:47;23.52;;;11.45;;
29432;SDS011;16405;53.964;13.448;2022-12-07T02:56:26;19.73;;;10.70;;
29432;SDS011;16405;53.964;13.448;2022-12-07T03:16:18;34.33;;;12.95;;
29432;SDS011;16405;53.964;13.448;2022-12-07T03:19:13;39.08;;;14.25;;
29432;SDS011;16405;53.964;13.448;2022-12-07T03:21:43;36.92;;;14.95;;
29432;SDS011;16405;53.964;13.448;2022-12-07T03:24:24;35.38;;;14.50;;
29432;SDS011;16405;53.964;13.448;2022-12-07T03:27:08;38.75;;;14.82;;
29432;SDS011;16405;53.964;13.448;2022-12-07T03:30:13;52.30;;;16.70;;
29432;SDS011;16405;53.964;13.448;2022-12-07T03:35:45;51.17;;;16.58;;
29432;SDS011;16405;53.964;13.448;2022-12-07T03:38:28;56.72;;;17.38;;
29432;SDS011;16405;53.964;13.448;2022-12-07T03:41:18;53.22;;;16.98;;
29432;SDS011;16405;53.964;13.448;2022-12-07T03:43:53;51.78;;;17.38;;
29432;SDS011;16405;53.964;13.448;2022-12-07T03:46:24;54.58;;;17.05;;
29432;SDS011;16405;53.964;13.448;2022-12-07T03:51:53;52.85;;;16.98;;
29432;SDS011;16405;53.964;13.448;2022-12-07T03:57:41;54.25;;;16.52;;
29432;SDS011;16405;53.964;13.448;2022-12-07T04:00:10;60.72;;;16.95;;
29432;SDS011;16405;53.964;13.448;2022-12-07T04:02:42;49.88;;;16.38;;
29432;SDS011;16405;53.964;13.448;2022-12-07T04:05:09;57.25;;;17.42;;
29432;SDS011;16405;53.964;13.448;2022-12-07T04:07:36;49.25;;;16.25;;
29432;SDS011;16405;53.964;13.448;2022-12-07T04:10:02;51.17;;;16.58;;
29432;SDS011;16405;53.964;13.448;2022-12-07T04:12:32;54.35;;;16.83;;
29432;SDS011;16405;53.964;13.448;2022-12-07T04:14:58;55.53;;;16.98;;
29432;SDS011;16405;53.964;13.448;2022-12-07T04:17:24;53.33;;;16.33;;
29432;SDS011;16405;53.964;13.448;2022-12-07T04:19:49;61.53;;;17.38;;
29432;SDS011;16405;53.964;13.448;2022-12-07T04:22:15;44.63;;;15.57;;
29432;SDS011;16405;53.964;13.448;2022-12-07T04:24:41;60.10;;;17.20;;
29432;SDS011;16405;53.964;13.448;2022-12-07T04:27:07;56.75;;;16.90;;
29432;SDS011;16405;53.964;13.448;2022-12-07T04:29:40;59.83;;;15.90;;
29432;SDS011;16405;53.964;13.448;2022-12-07T04:32:06;55.75;;;16.05;;
29432;SDS011;16405;53.964;13.448;2022-12-07T04:34:32;49.42;;;16.88;;
29432;SDS011;16405;53.964;13.448;2022-12-07T04:36:58;73.78;;;17.80;;
29432;SDS011;16405;53.964;13.448;2022-12-07T04:39:27;68.25;;;17.85;;
29432;SDS011;16405;53.964;13.448;2022-12-07T04:41:56;65.65;;;17.20;;
29432;SDS011;16405;53.964;13.448;2022-12-07T04:44:24;63.45;;;17.65;;
29432;SDS011;16405;53.964;13.448;2022-12-07T04:46:54;64.57;;;17.75;;
29432;SDS011;16405;53.964;13.448;2022-12-07T04:49:23;63.20;;;18.98;;
29432;SDS011;16405;53.964;13.448;2022-12-07T04:51:50;63.13;;;18.67;;
29432;SDS011;16405;53.964;13.448;2022-12-07T04:54:16;67.05;;;19.15;;
29432;SDS011;16405;53.964;13.448;2022-12-07T04:56:42;52.00;;;16.67;;
29432;SDS011;16405;53.964;13.448;2022-12-07T04:59:14;71.10;;;18.58;;
29432;SDS011;16405;53.964;13.448;2022-12-07T05:01:41;69.88;;;18.55;;
29432;SDS011;16405;53.964;13.448;2022-12-07T05:04:07;66.05;;;18.25;;
29432;SDS011;16405;53.964;13.448;2022-12-07T05:06:34;72.50;;;19.73;;
29432;SDS011;16405;53.964;13.448;2022-12-07T05:09:00;71.90;;;18.30;;
29432;SDS011;16405;53.964;13.448;2022-12-07T05:11:35;73.35;;;18.80;;
29432;SDS011;16405;53.964;13.448;2022-12-07T05:14:04;80.53;;;19.00;;
29432;SDS011;16405;53.964;13.448;2022-12-07T05:16:37;82.18;;;18.88;;
29432;SDS011;16405;53.964;13.448;2022-12-07T05:19:05;80.32;;;17.58;;
29432;SDS011;16405;53.964;13.448;2022-12-07T05:21:31;80.25;;;18.27;;
29432;SDS011;16405;53.964;13.448;2022-12-07T05:23:57;77.28;;;17.77;;
29432;SDS011;16405;53.964;13.448;2022-12-07T05:26:26;76.55;;;17.02;;
29432;SDS011;16405;53.964;13.448;2022-12-07T05:28:52;75.63;;;17.85;;
29432;SDS011;16405;53.964;13.448;2022-12-07T05:31:20;81.45;;;18.80;;
29432;SDS011;16405;53.964;13.448;2022-12-07T05:33:48;65.60;;;18.05;;
29432;SDS011;16405;53.964;13.448;2022-12-07T05:36:14;80.30;;;19.70;;
29432;SDS011;16405;53.964;13.448;2022-12-07T05:38:41;94.93;;;20.80;;
29432;SDS011;16405;53.964;13.448;2022-12-07T05:41:07;95.32;;;18.85;;
29432;SDS011;16405;53.964;13.448;2022-12-07T05:43:57;86.38;;;19.38;;
29432;SDS011;16405;53.964;13.448;2022-12-07T05:46:25;91.95;;;19.15;;
29432;SDS011;16405;53.964;13.448;2022-12-07T05:48:52;71.13;;;18.13;;
29432;SDS011;16405;53.964;13.448;2022-12-07T05:51:17;56.75;;;16.08;;
29432;SDS011;16405;53.964;13.448;2022-12-07T05:53:43;73.45;;;17.15;;
29432;SDS011;16405;53.964;13.448;2022-12-07T05:56:10;75.93;;;17.42;;
29432;SDS011;16405;53.964;13.448;2022-12-07T05:58:36;78.95;;;17.58;;
29432;SDS011;16405;53.964;13.448;2022-12-07T06:01:20;67.03;;;17.80;;
29432;SDS011;16405;53.964;13.448;2022-12-07T06:03:46;84.32;;;19.10;;
29432;SDS011;16405;53.964;13.448;2022-12-07T06:06:12;97.68;;;19.80;;
29432;SDS011;16405;53.964;13.448;2022-12-07T06:08:40;89.57;;;19.45;;
29432;SDS011;16405;53.964;13.448;2022-12-07T06:11:06;91.90;;;19.52;;
29432;SDS011;16405;53.964;13.448;2022-12-07T06:13:51;107.53;;;20.88;;
29432;SDS011;16405;53.964;13.448;2022-12-07T06:16:18;110.53;;;20.63;;
29432;SDS011;16405;53.964;13.448;2022-12-07T06:18:44;107.72;;;20.50;;
29432;SDS011;16405;53.964;13.448;2022-12-07T06:21:10;139.13;;;21.52;;
29432;SDS011;16405;53.964;13.448;2022-12-07T06:23:36;139.13;;;22.13;;
29432;SDS011;16405;53.964;13.448;2022-12-07T06:26:02;115.95;;;20.38;;
29432;SDS011;16405;53.964;13.448;2022-12-07T06:28:27;146.45;;;21.85;;
29432;SDS011;16405;53.964;13.448;2022-12-07T06:31:01;172.57;;;23.17;;
29432;SDS011;16405;53.964;13.448;2022-12-07T06:33:28;163.70;;;22.65;;
29432;SDS011;16405;53.964;13.448;2022-12-07T06:35:54;174.82;;;23.30;;
29432;SDS011;16405;53.964;13.448;2022-12-07T06:38:25;212.45;;;24.80;;
29432;SDS011;16405;53.964;13.448;2022-12-07T06:40:51;177.05;;;23.77;;
29432;SDS011;16405;53.964;13.448;2022-12-07T06:43:16;177.18;;;22.85;;
29432;SDS011;16405;53.964;13.448;2022-12-07T06:45:42;204.55;;;23.48;;
29432;SDS011;16405;53.964;13.448;2022-12-07T06:48:08;207.77;;;24.40;;
29432;SDS011;16405;53.964;13.448;2022-12-07T06:50:34;140.70;;;22.10;;
29432;SDS011;16405;53.964;13.448;2022-12-07T06:52:59;188.15;;;23.80;;
29432;SDS011;16405;53.964;13.448;2022-12-07T06:55:29;188.85;;;25.00;;
29432;SDS011;16405;53.964;13.448;2022-12-07T06:57:54;228.35;;;24.33;;
29432;SDS011;16405;53.964;13.448;2022-12-07T07:00:21;298.65;;;26.08;;
29432;SDS011;16405;53.964;13.448;2022-12-07T07:02:47;104.63;;;20.33;;
29432;SDS011;16405;53.964;13.448;2022-12-07T07:05:13;268.73;;;24.33;;
29432;SDS011;16405;53.964;13.448;2022-12-07T07:07:39;145.43;;;22.05;;
29432;SDS011;16405;53.964;13.448;2022-12-07T07:10:09;195.52;;;22.58;;
29432;SDS011;16405;53.964;13.448;2022-12-07T07:12:35;221.27;;;21.15;;
29432;SDS011;16405;53.964;13.448;2022-12-07T07:15:01;218.88;;;19.70;;
29432;SDS011;16405;53.964;13.448;2022-12-07T07:17:27;312.48;;;21.67;;
29432;SDS011;16405;53.964;13.448;2022-12-07T07:19:53;218.25;;;18.10;;
29432;SDS011;16405;53.964;13.448;2022-12-07T07:22:19;245.23;;;21.48;;
29432;SDS011;16405;53.964;13.448;2022-12-07T07:24:45;250.18;;;20.08;;
29432;SDS011;16405;53.964;13.448;2022-12-07T07:27:15;272.38;;;20.40;;
29432;SDS011;16405;53.964;13.448;2022-12-07T07:29:41;306.70;;;19.52;;
29432;SDS011;16405;53.964;13.448;2022-12-07T07:32:07;307.60;;;20.13;;
29432;SDS011;16405;53.964;13.448;2022-12-07T07:34:33;447.38;;;19.83;;
29432;SDS011;16405;53.964;13.448;2022-12-07T07:36:59;303.45;;;19.17;;
29432;SDS011;16405;53.964;13.448;2022-12-07T07:39:29;254.68;;;16.50;;
29432;SDS011;16405;53.964;13.448;2022-12-07T07:41:55;364.30;;;20.98;;
29432;SDS011;16405;53.964;13.448;2022-12-07T07:44:21;463.02;;;23.88;;
29432;SDS011;16405;53.964;13.448;2022-12-07T07:46:47;408.65;;;23.63;;
29432;SDS011;16405;53.964;13.448;2022-12-07T07:49:12;384.08;;;23.83;;
29432;SDS011;16405;53.964;13.448;2022-12-07T07:51:38;211.32;;;19.20;;
29432;SDS011;16405;53.964;13.448;2022-12-07T07:54:04;317.98;;;21.85;;
29432;SDS011;16405;53.964;13.448;2022-12-07T07:56:35;221.27;;;20.83;;
29432;SDS011;16405;53.964;13.448;2022-12-07T07:59:01;150.00;;;18.95;;
29432;SDS011;16405;53.964;13.448;2022-12-07T08:01:27;161.73;;;19.45;;
29432;SDS011;16405;53.964;13.448;2022-12-07T08:03:53;322.05;;;21.60;;
29432;SDS011;16405;53.964;13.448;2022-12-07T08:06:19;292.75;;;22.30;;
29432;SDS011;16405;53.964;13.448;2022-12-07T08:08:47;191.88;;;21.58;;
29432;SDS011;16405;53.964;13.448;2022-12-07T08:11:15;254.60;;;21.27;;
29432;SDS011;16405;53.964;13.448;2022-12-07T08:13:41;89.88;;;18.55;;
29432;SDS011;16405;53.964;13.448;2022-12-07T08:16:10;153.85;;;18.52;;
29432;SDS011;16405;53.964;13.448;2022-12-07T08:18:39;141.60;;;19.77;;
29432;SDS011;16405;53.964;13.448;2022-12-07T08:21:06;163.95;;;19.88;;
29432;SDS011;16405;53.964;13.448;2022-12-07T08:23:35;125.20;;;21.20;;
29432;SDS011;16405;53.964;13.448;2022-12-07T08:26:02;152.68;;;19.90;;
29432;SDS011;16405;53.964;13.448;2022-12-07T08:28:39;116.45;;;18.02;;
29432;SDS011;16405;53.964;13.448;2022-12-07T08:31:15;173.52;;;21.42;;
29432;SDS011;16405;53.964;13.448;2022-12-07T08:33:44;131.88;;;20.08;;
29432;SDS011;16405;53.964;13.448;2022-12-07T08:36:12;220.30;;;20.20;;
29432;SDS011;16405;53.964;13.448;2022-12-07T08:38:43;196.88;;;18.30;;
29432;SDS011;16405;53.964;13.448;2022-12-07T08:41:10;139.73;;;19.25;;
29432;SDS011;16405;53.964;13.448;2022-12-07T08:43:36;165.75;;;22.48;;
29432;SDS011;16405;53.964;13.448;2022-12-07T08:48:41;117.68;;;20.75;;
29432;SDS011;16405;53.964;13.448;2022-12-07T08:51:20;97.45;;;20.02;;
29432;SDS011;16405;53.964;13.448;2022-12-07T08:53:48;95.18;;;19.38;;
29432;SDS011;16405;53.964;13.448;2022-12-07T08:56:21;78.13;;;20.08;;
29432;SDS011;16405;53.964;13.448;2022-12-07T08:58:51;80.50;;;17.92;;
29432;SDS011;16405;53.964;13.448;2022-12-07T09:01:22;71.18;;;19.25;;
29432;SDS011;16405;53.964;13.448;2022-12-07T09:03:52;75.95;;;18.67;;
29432;SDS011;16405;53.964;13.448;2022-12-07T09:06:29;82.20;;;20.17;;
29432;SDS011;16405;53.964;13.448;2022-12-07T09:08:58;61.70;;;18.27;;
29432;SDS011;16405;53.964;13.448;2022-12-07T09:11:33;54.53;;;16.55;;
29432;SDS011;16405;53.964;13.448;2022-12-07T09:13:59;69.32;;;19.83;;
29432;SDS011;16405;53.964;13.448;2022-12-07T09:16:27;76.28;;;20.13;;
29432;SDS011;16405;53.964;13.448;2022-12-07T09:18:58;79.20;;;21.08;;
29432;SDS011;16405;53.964;13.448;2022-12-07T09:21:24;75.30;;;20.88;;
29432;SDS011;16405;53.964;13.448;2022-12-07T09:23:50;80.50;;;21.75;;
29432;SDS011;16405;53.964;13.448;2022-12-07T09:26:19;65.68;;;21.63;;
29432;SDS011;16405;53.964;13.448;2022-12-07T09:28:55;54.80;;;19.90;;
29432;SDS011;16405;53.964;13.448;2022-12-07T09:31:21;50.42;;;17.35;;
29432;SDS011;16405;53.964;13.448;2022-12-07T09:33:54;43.50;;;16.23;;
29432;SDS011;16405;53.964;13.448;2022-12-07T09:36:34;39.13;;;15.95;;
29432;SDS011;16405;53.964;13.448;2022-12-07T09:39:03;36.40;;;14.35;;
29432;SDS011;16405;53.964;13.448;2022-12-07T09:41:29;29.30;;;13.00;;
29432;SDS011;16405;53.964;13.448;2022-12-07T09:44:07;27.92;;;12.20;;
29432;SDS011;16405;53.964;13.448;2022-12-07T09:49:22;15.98;;;7.38;;
29432;SDS011;16405;53.964;13.448;2022-12-07T09:52:41;20.40;;;9.70;;
29432;SDS011;16405;53.964;13.448;2022-12-07T09:54:55;19.67;;;8.68;;
29432;SDS011;16405;53.964;13.448;2022-12-07T09:57:27;11.85;;;7.05;;
29432;SDS011;16405;53.964;13.448;2022-12-07T10:00:04;17.75;;;8.23;;
29432;SDS011;16405;53.964;13.448;2022-12-07T10:02:41;23.00;;;9.60;;
29432;SDS011;16405;53.964;13.448;2022-12-07T10:05:47;20.98;;;10.32;;
29432;SDS011;16405;53.964;13.448;2022-12-07T10:08:25;23.48;;;9.52;;
29432;SDS011;16405;53.964;13.448;2022-12-07T10:10:52;23.20;;;9.88;;
29432;SDS011;16405;53.964;13.448;2022-12-07T10:18:53;23.38;;;11.93;;
29432;SDS011;16405;53.964;13.448;2022-12-07T10:24:43;29.10;;;13.93;;
29432;SDS011;16405;53.964;13.448;2022-12-07T10:30:24;33.00;;;14.02;;
29432;SDS011;16405;53.964;13.448;2022-12-07T10:32:53;31.85;;;14.60;;
29432;SDS011;16405;53.964;13.448;2022-12-07T10:35:31;32.65;;;15.68;;
29432;SDS011;16405;53.964;13.448;2022-12-07T10:38:15;34.73;;;15.97;;
29432;SDS011;16405;53.964;13.448;2022-12-07T10:40:42;32.10;;;15.50;;
29432;SDS011;16405;53.964;13.448;2022-12-07T10:43:17;27.85;;;14.00;;
29432;SDS011;16405;53.964;13.448;2022-12-07T10:48:12;28.50;;;14.77;;
29432;SDS011;16405;53.964;13.448;2022-12-07T11:00:51;20.85;;;11.10;;
29432;SDS011;16405;53.964;13.448;2022-12-07T11:09:47;14.80;;;8.60;;
29432;SDS011;16405;53.964;13.448;2022-12-07T11:13:00;12.40;;;7.53;;
29432;SDS011;16405;53.964;13.448;2022-12-07T11:24:04;7.03;;;2.20;;
29432;SDS011;16405;53.964;13.448;2022-12-07T11:39:04;5.72;;;2.47;;
29432;SDS011;16405;53.964;13.448;2022-12-07T11:44:56;7.30;;;2.70;;
29432;SDS011;16405;53.964;13.448;2022-12-07T11:47:51;5.20;;;3.65;;
29432;SDS011;16405;53.964;13.448;2022-12-07T11:53:24;7.47;;;3.97;;
29432;SDS011;16405;53.964;13.448;2022-12-07T12:01:35;8.98;;;4.40;;
29432;SDS011;16405;53.964;13.448;2022-12-07T12:06:46;11.45;;;5.78;;
29432;SDS011;16405;53.964;13.448;2022-12-07T12:09:26;11.93;;;5.90;;
29432;SDS011;16405;53.964;13.448;2022-12-07T12:12:55;11.02;;;5.68;;
29432;SDS011;16405;53.964;13.448;2022-12-07T12:15:38;16.15;;;6.55;;
29432;SDS011;16405;53.964;13.448;2022-12-07T12:19:24;17.83;;;7.03;;
29432;SDS011;16405;53.964;13.448;2022-12-07T12:22:01;13.52;;;6.47;;
29432;SDS011;16405;53.964;13.448;2022-12-07T12:24:42;11.27;;;5.72;;
29432;SDS011;16405;53.964;13.448;2022-12-07T12:27:35;14.02;;;5.97;;
29432;SDS011;16405;53.964;13.448;2022-12-07T12:30:05;14.07;;;6.35;;
29432;SDS011;16405;53.964;13.448;2022-12-07T12:32:49;11.88;;;6.07;;
29432;SDS011;16405;53.964;13.448;2022-12-07T12:35:35;17.50;;;6.00;;
29432;SDS011;16405;53.964;13.448;2022-12-07T12:41:01;15.43;;;6.38;;
29432;SDS011;16405;53.964;13.448;2022-12-07T12:43:44;10.65;;;5.78;;
29432;SDS011;16405;53.964;13.448;2022-12-07T12:51:49;13.32;;;5.47;;
29432;SDS011;16405;53.964;13.448;2022-12-07T12:54:28;12.23;;;5.32;;
29432;SDS011;16405;53.964;13.448;2022-12-07T13:02:21;11.90;;;5.32;;
29432;SDS011;16405;53.964;13.448;2022-12-07T13:15:41;10.45;;;5.85;;
29432;SDS011;16405;53.964;13.448;2022-12-07T13:28:40;13.07;;;6.90;;
29432;SDS011;16405;53.964;13.448;2022-12-07T13:36:58;13.77;;;6.30;;
29432;SDS011;16405;53.964;13.448;2022-12-07T13:44:52;18.73;;;6.30;;
29432;SDS011;16405;53.964;13.448;2022-12-07T13:50:25;12.48;;;4.72;;
29432;SDS011;16405;53.964;13.448;2022-12-07T13:52:58;13.05;;;5.35;;
29432;SDS011;16405;53.964;13.448;2022-12-07T13:55:26;17.15;;;5.82;;
29432;SDS011;16405;53.964;13.448;2022-12-07T13:57:54;22.63;;;5.50;;
29432;SDS011;16405;53.964;13.448;2022-12-07T14:00:21;13.05;;;5.45;;
29432;SDS011;16405;53.964;13.448;2022-12-07T14:03:04;15.88;;;5.43;;
29432;SDS011;16405;53.964;13.448;2022-12-07T14:08:50;10.73;;;4.05;;
29432;SDS011;16405;53.964;13.448;2022-12-07T14:11:30;9.65;;;3.40;;
29432;SDS011;16405;53.964;13.448;2022-12-07T14:13:57;12.73;;;3.40;;
29432;SDS011;16405;53.964;13.448;2022-12-07T14:16:36;9.15;;;2.85;;
29432;SDS011;16405;53.964;13.448;2022-12-07T14:19:04;12.80;;;2.67;;
29432;SDS011;16405;53.964;13.448;2022-12-07T14:22:05;15.70;;;2.90;;
29432;SDS011;16405;53.964;13.448;2022-12-07T14:24:42;11.52;;;2.20;;
29432;SDS011;16405;53.964;13.448;2022-12-07T14:27:16;8.02;;;2.22;;
29432;SDS011;16405;53.964;13.448;2022-12-07T14:29:45;9.52;;;1.90;;
29432;SDS011;16405;53.964;13.448;2022-12-07T14:32:22;8.07;;;1.95;;
29432;SDS011;16405;53.964;13.448;2022-12-07T14:34:57;5.85;;;1.80;;
29432;SDS011;16405;53.964;13.448;2022-12-07T14:37:37;11.63;;;2.30;;
29432;SDS011;16405;53.964;13.448;2022-12-07T14:40:05;9.93;;;1.92;;
29432;SDS011;16405;53.964;13.448;2022-12-07T14:42:32;9.20;;;1.85;;
29432;SDS011;16405;53.964;13.448;2022-12-07T14:44:59;6.88;;;2.22;;
29432;SDS011;16405;53.964;13.448;2022-12-07T14:47:46;8.90;;;2.63;;
29432;SDS011;16405;53.964;13.448;2022-12-07T14:50:14;10.85;;;2.42;;
29432;SDS011;16405;53.964;13.448;2022-12-07T14:52:47;8.25;;;2.33;;
29432;SDS011;16405;53.964;13.448;2022-12-07T14:55:29;10.35;;;2.95;;
29432;SDS011;16405;53.964;13.448;2022-12-07T14:57:56;7.22;;;2.65;;
29432;SDS011;16405;53.964;13.448;2022-12-07T15:00:24;10.85;;;2.70;;
29432;SDS011;16405;53.964;13.448;2022-12-07T15:02:52;11.20;;;2.78;;
29432;SDS011;16405;53.964;13.448;2022-12-07T15:05:18;8.00;;;2.15;;
29432;SDS011;16405;53.964;13.448;2022-12-07T15:07:48;12.30;;;2.65;;
29432;SDS011;16405;53.964;13.448;2022-12-07T15:10:19;12.15;;;2.72;;
29432;SDS011;16405;53.964;13.448;2022-12-07T15:12:48;10.98;;;2.50;;
29432;SDS011;16405;53.964;13.448;2022-12-07T15:15:15;9.82;;;2.88;;
29432;SDS011;16405;53.964;13.448;2022-12-07T15:17:42;18.42;;;3.45;;
29432;SDS011;16405;53.964;13.448;2022-12-07T15:20:10;14.80;;;3.03;;
29432;SDS011;16405;53.964;13.448;2022-12-07T15:22:41;10.65;;;2.60;;
29432;SDS011;16405;53.964;13.448;2022-12-07T15:25:08;11.30;;;2.72;;
29432;SDS011;16405;53.964;13.448;2022-12-07T15:27:37;12.50;;;2.60;;
29432;SDS011;16405;53.964;13.448;2022-12-07T15:30:03;9.75;;;2.40;;
29432;SDS011;16405;53.964;13.448;2022-12-07T15:32:33;8.23;;;2.00;;
29432;SDS011;16405;53.964;13.448;2022-12-07T15:34:58;13.80;;;2.15;;
29432;SDS011;16405;53.964;13.448;2022-12-07T15:37:24;8.82;;;2.17;;
29432;SDS011;16405;53.964;13.448;2022-12-07T15:39:50;9.40;;;2.60;;
29432;SDS011;16405;53.964;13.448;2022-12-07T15:42:16;9.57;;;2.00;;
29432;SDS011;16405;53.964;13.448;2022-12-07T15:44:42;13.77;;;1.95;;
29432;SDS011;16405;53.964;13.448;2022-12-07T15:47:26;9.82;;;2.00;;
29432;SDS011;16405;53.964;13.448;2022-12-07T15:49:54;8.18;;;1.80;;
29432;SDS011;16405;53.964;13.448;2022-12-07T15:52:20;11.30;;;2.10;;
29432;SDS011;16405;53.964;13.448;2022-12-07T15:54:46;6.10;;;1.38;;
29432;SDS011;16405;53.964;13.448;2022-12-07T15:57:13;7.75;;;1.35;;
29432;SDS011;16405;53.964;13.448;2022-12-07T15:59:39;8.80;;;1.25;;
29432;SDS011;16405;53.964;13.448;2022-12-07T16:02:14;13.35;;;1.60;;
29432;SDS011;16405;53.964;13.448;2022-12-07T16:04:40;4.78;;;0.90;;
29432;SDS011;16405;53.964;13.448;2022-12-07T16:07:05;6.63;;;1.00;;
29432;SDS011;16405;53.964;13.448;2022-12-07T16:09:41;4.47;;;0.95;;
29432;SDS011;16405;53.964;13.448;2022-12-07T16:12:08;7.75;;;1.10;;
29432;SDS011;16405;53.964;13.448;2022-12-07T16:14:35;6.53;;;1.30;;
29432;SDS011;16405;53.964;13.448;2022-12-07T16:17:09;6.82;;;1.20;;
29432;SDS011;16405;53.964;13.448;2022-12-07T16:19:35;7.50;;;1.10;;
29432;SDS011;16405;53.964;13.448;2022-12-07T16:22:02;7.57;;;1.40;;
29432;SDS011;16405;53.964;13.448;2022-12-07T16:24:29;4.32;;;1.30;;
29432;SDS011;16405;53.964;13.448;2022-12-07T16:26:58;4.82;;;1.50;;
29432;SDS011;16405;53.964;13.448;2022-12-07T16:29:24;8.60;;;1.50;;
29432;SDS011;16405;53.964;13.448;2022-12-07T16:31:50;4.57;;;1.42;;
29432;SDS011;16405;53.964;13.448;2022-12-07T16:34:17;7.32;;;1.50;;
29432;SDS011;16405;53.964;13.448;2022-12-07T16:36:43;7.35;;;1.75;;
29432;SDS011;16405;53.964;13.448;2022-12-07T16:39:17;5.53;;;1.90;;
29432;SDS011;16405;53.964;13.448;2022-12-07T16:41:43;4.00;;;1.45;;
29432;SDS011;16405;53.964;13.448;2022-12-07T16:44:10;4.63;;;1.70;;
29432;SDS011;16405;53.964;13.448;2022-12-07T16:46:37;4.15;;;1.42;;
29432;SDS011;16405;53.964;13.448;2022-12-07T16:49:11;5.03;;;1.83;;
29432;SDS011;16405;53.964;13.448;2022-12-07T16:51:38;3.92;;;1.90;;
29432;SDS011;16405;53.964;13.448;2022-12-07T16:54:12;3.85;;;2.00;;
29432;SDS011;16405;53.964;13.448;2022-12-07T16:56:38;2.85;;;1.75;;
29432;SDS011;16405;53.964;13.448;2022-12-07T16:59:05;7.63;;;2.50;;
29432;SDS011;16405;53.964;13.448;2022-12-07T17:01:30;3.78;;;1.90;;
29432;SDS011;16405;53.964;13.448;2022-12-07T17:03:59;7.57;;;2.10;;
29432;SDS011;16405;53.964;13.448;2022-12-07T17:06:26;6.70;;;2.10;;
29432;SDS011;16405;53.964;13.448;2022-12-07T17:08:53;9.07;;;2.03;;
29432;SDS011;16405;53.964;13.448;2022-12-07T17:11:21;2.88;;;2.10;;
29432;SDS011;16405;53.964;13.448;2022-12-07T17:13:53;7.10;;;2.15;;
29432;SDS011;16405;53.964;13.448;2022-12-07T17:16:38;4.15;;;2.50;;
29432;SDS011;16405;53.964;13.448;2022-12-07T17:19:05;6.03;;;2.90;;
29432;SDS011;16405;53.964;13.448;2022-12-07T17:21:33;6.45;;;2.83;;
29432;SDS011;16405;53.964;13.448;2022-12-07T17:24:02;7.03;;;3.17;;
29432;SDS011;16405;53.964;13.448;2022-12-07T17:26:31;6.25;;;3.03;;
29432;SDS011;16405;53.964;13.448;2022-12-07T17:28:58;7.18;;;3.30;;